HAM weather

Hamburg Airport
Hamburg, Hamburg, Germany

Public forecast

Using degrees Celsius for public forecast. Weather courtesy of forecast.io.

Current aviation weather report (METAR) for Hamburg Airport

Retrieved 2019/10/19 00:20 UTC (16 minutes ago):

EDDH 190020Z 21013KT CAVOK 11/06 Q1007 NOSIG

Aviation forecast (TAF) for Hamburg Airport

Retrieved 2019-10-19 00:27 UTC (9 minutes ago):

TAF EDDH 182300Z 1900/2006 18010KT 9999 SCT030 TEMPO 1912/1921 4000 SHRA BKN020CB BECMG 1915/1917 18005KT TEMPO 2004/2006 4000 BR